sensor_id;sensor_type;location;lat;lon;timestamp;P1;durP1;ratioP1;P2;durP2;ratioP2
4704;SDS011;2366;51.332;6.610;2024-03-06T00:02:17;40.00;;;25.00;;
4704;SDS011;2366;51.332;6.610;2024-03-06T00:04:43;41.00;;;26.43;;
4704;SDS011;2366;51.332;6.610;2024-03-06T00:07:08;47.00;;;25.63;;
4704;SDS011;2366;51.332;6.610;2024-03-06T00:09:34;46.60;;;26.57;;
4704;SDS011;2366;51.332;6.610;2024-03-06T00:11:59;38.87;;;24.80;;
4704;SDS011;2366;51.332;6.610;2024-03-06T00:14:25;41.43;;;25.70;;
4704;SDS011;2366;51.332;6.610;2024-03-06T00:16:50;46.00;;;25.30;;
4704;SDS011;2366;51.332;6.610;2024-03-06T00:19:16;42.03;;;27.70;;
4704;SDS011;2366;51.332;6.610;2024-03-06T00:21:42;45.35;;;27.13;;
4704;SDS011;2366;51.332;6.610;2024-03-06T00:24:08;45.37;;;26.37;;
4704;SDS011;2366;51.332;6.610;2024-03-06T00:26:33;48.33;;;26.97;;
4704;SDS011;2366;51.332;6.610;2024-03-06T00:28:59;42.73;;;24.93;;
4704;SDS011;2366;51.332;6.610;2024-03-06T00:31:24;38.70;;;23.60;;
4704;SDS011;2366;51.332;6.610;2024-03-06T00:33:49;42.27;;;25.80;;
4704;SDS011;2366;51.332;6.610;2024-03-06T00:36:15;42.80;;;24.60;;
4704;SDS011;2366;51.332;6.610;2024-03-06T00:38:40;49.80;;;28.47;;
4704;SDS011;2366;51.332;6.610;2024-03-06T00:41:05;41.27;;;24.80;;
4704;SDS011;2366;51.332;6.610;2024-03-06T00:43:31;46.80;;;26.30;;
4704;SDS011;2366;51.332;6.610;2024-03-06T00:45:56;54.43;;;26.10;;
4704;SDS011;2366;51.332;6.610;2024-03-06T00:48:22;44.33;;;26.50;;
4704;SDS011;2366;51.332;6.610;2024-03-06T00:50:47;42.33;;;23.30;;
4704;SDS011;2366;51.332;6.610;2024-03-06T00:53:13;41.67;;;24.60;;
4704;SDS011;2366;51.332;6.610;2024-03-06T00:55:38;42.83;;;26.47;;
4704;SDS011;2366;51.332;6.610;2024-03-06T00:58:04;50.30;;;24.83;;
4704;SDS011;2366;51.332;6.610;2024-03-06T01:00:31;40.63;;;25.85;;
4704;SDS011;2366;51.332;6.610;2024-03-06T01:02:57;39.00;;;24.20;;
4704;SDS011;2366;51.332;6.610;2024-03-06T01:05:22;40.00;;;24.77;;
4704;SDS011;2366;51.332;6.610;2024-03-06T01:07:48;43.23;;;25.67;;
4704;SDS011;2366;51.332;6.610;2024-03-06T01:10:13;39.80;;;24.57;;
4704;SDS011;2366;51.332;6.610;2024-03-06T01:12:39;42.33;;;25.90;;
4704;SDS011;2366;51.332;6.610;2024-03-06T01:15:05;40.63;;;26.33;;
4704;SDS011;2366;51.332;6.610;2024-03-06T01:17:31;49.65;;;25.40;;
4704;SDS011;2366;51.332;6.610;2024-03-06T01:19:56;39.63;;;24.40;;
4704;SDS011;2366;51.332;6.610;2024-03-06T01:22:22;46.50;;;27.73;;
4704;SDS011;2366;51.332;6.610;2024-03-06T01:24:47;54.67;;;27.00;;
4704;SDS011;2366;51.332;6.610;2024-03-06T01:27:15;42.20;;;27.25;;
4704;SDS011;2366;51.332;6.610;2024-03-06T01:29:41;38.38;;;24.45;;
4704;SDS011;2366;51.332;6.610;2024-03-06T01:32:07;52.20;;;28.50;;
4704;SDS011;2366;51.332;6.610;2024-03-06T01:34:32;47.57;;;28.13;;
4704;SDS011;2366;51.332;6.610;2024-03-06T01:36:58;42.07;;;24.93;;
4704;SDS011;2366;51.332;6.610;2024-03-06T01:39:23;41.43;;;25.97;;
4704;SDS011;2366;51.332;6.610;2024-03-06T01:41:49;39.00;;;24.20;;
4704;SDS011;2366;51.332;6.610;2024-03-06T01:44:18;36.95;;;23.27;;
4704;SDS011;2366;51.332;6.610;2024-03-06T01:46:44;40.45;;;26.35;;
4704;SDS011;2366;51.332;6.610;2024-03-06T01:49:10;37.78;;;22.70;;
4704;SDS011;2366;51.332;6.610;2024-03-06T01:51:38;33.40;;;22.00;;
4704;SDS011;2366;51.332;6.610;2024-03-06T01:54:05;33.03;;;22.83;;
4704;SDS011;2366;51.332;6.610;2024-03-06T01:56:34;39.25;;;23.08;;
4704;SDS011;2366;51.332;6.610;2024-03-06T01:59:00;36.35;;;23.00;;
4704;SDS011;2366;51.332;6.610;2024-03-06T02:01:27;28.45;;;20.38;;
4704;SDS011;2366;51.332;6.610;2024-03-06T02:03:53;34.33;;;21.83;;
4704;SDS011;2366;51.332;6.610;2024-03-06T02:06:19;32.00;;;21.43;;
4704;SDS011;2366;51.332;6.610;2024-03-06T02:08:48;35.23;;;22.57;;
4704;SDS011;2366;51.332;6.610;2024-03-06T02:11:13;46.65;;;22.73;;
4704;SDS011;2366;51.332;6.610;2024-03-06T02:13:40;37.88;;;21.33;;
4704;SDS011;2366;51.332;6.610;2024-03-06T02:16:06;32.20;;;22.25;;
4704;SDS011;2366;51.332;6.610;2024-03-06T02:18:32;34.20;;;22.30;;
4704;SDS011;2366;51.332;6.610;2024-03-06T02:20:58;37.23;;;23.30;;
4704;SDS011;2366;51.332;6.610;2024-03-06T02:23:23;29.40;;;20.70;;
4704;SDS011;2366;51.332;6.610;2024-03-06T02:25:49;37.63;;;21.80;;
4704;SDS011;2366;51.332;6.610;2024-03-06T02:28:16;34.22;;;22.08;;
4704;SDS011;2366;51.332;6.610;2024-03-06T02:30:42;42.00;;;24.20;;
4704;SDS011;2366;51.332;6.610;2024-03-06T02:33:07;34.90;;;21.70;;
4704;SDS011;2366;51.332;6.610;2024-03-06T02:35:34;36.78;;;24.13;;
4704;SDS011;2366;51.332;6.610;2024-03-06T02:38:01;39.15;;;22.70;;
4704;SDS011;2366;51.332;6.610;2024-03-06T02:40:27;36.85;;;22.80;;
4704;SDS011;2366;51.332;6.610;2024-03-06T02:42:53;38.40;;;22.57;;
4704;SDS011;2366;51.332;6.610;2024-03-06T02:45:19;36.93;;;23.03;;
4704;SDS011;2366;51.332;6.610;2024-03-06T02:47:44;36.33;;;22.27;;
4704;SDS011;2366;51.332;6.610;2024-03-06T02:50:10;36.27;;;24.03;;
4704;SDS011;2366;51.332;6.610;2024-03-06T02:52:35;46.27;;;29.00;;
4704;SDS011;2366;51.332;6.610;2024-03-06T02:55:01;45.07;;;29.30;;
4704;SDS011;2366;51.332;6.610;2024-03-06T02:57:27;55.85;;;31.55;;
4704;SDS011;2366;51.332;6.610;2024-03-06T02:59:56;57.85;;;35.42;;
4704;SDS011;2366;51.332;6.610;2024-03-06T03:02:22;63.08;;;37.28;;
4704;SDS011;2366;51.332;6.610;2024-03-06T03:04:48;63.55;;;33.67;;
4704;SDS011;2366;51.332;6.610;2024-03-06T03:07:14;56.70;;;33.22;;
4704;SDS011;2366;51.332;6.610;2024-03-06T03:09:40;67.40;;;34.53;;
4704;SDS011;2366;51.332;6.610;2024-03-06T03:12:05;53.90;;;31.73;;
4704;SDS011;2366;51.332;6.610;2024-03-06T03:14:31;53.47;;;30.67;;
4704;SDS011;2366;51.332;6.610;2024-03-06T03:16:56;59.27;;;32.63;;
4704;SDS011;2366;51.332;6.610;2024-03-06T03:19:22;55.70;;;31.53;;
4704;SDS011;2366;51.332;6.610;2024-03-06T03:21:47;71.07;;;33.57;;
4704;SDS011;2366;51.332;6.610;2024-03-06T03:24:12;59.47;;;29.70;;
4704;SDS011;2366;51.332;6.610;2024-03-06T03:26:38;53.90;;;30.20;;
4704;SDS011;2366;51.332;6.610;2024-03-06T03:29:03;53.77;;;29.33;;
4704;SDS011;2366;51.332;6.610;2024-03-06T03:31:29;65.57;;;34.30;;
4704;SDS011;2366;51.332;6.610;2024-03-06T03:33:54;64.67;;;32.87;;
4704;SDS011;2366;51.332;6.610;2024-03-06T03:36:19;65.40;;;32.37;;
4704;SDS011;2366;51.332;6.610;2024-03-06T03:38:45;57.23;;;32.97;;
4704;SDS011;2366;51.332;6.610;2024-03-06T03:41:10;74.77;;;34.10;;
4704;SDS011;2366;51.332;6.610;2024-03-06T03:43:41;64.38;;;36.80;;
4704;SDS011;2366;51.332;6.610;2024-03-06T03:46:07;63.93;;;33.17;;
4704;SDS011;2366;51.332;6.610;2024-03-06T03:48:34;75.10;;;36.00;;
4704;SDS011;2366;51.332;6.610;2024-03-06T03:51:02;70.97;;;33.80;;
4704;SDS011;2366;51.332;6.610;2024-03-06T03:53:32;72.60;;;35.00;;
4704;SDS011;2366;51.332;6.610;2024-03-06T03:55:58;70.05;;;34.67;;
4704;SDS011;2366;51.332;6.610;2024-03-06T03:58:24;70.38;;;38.25;;
4704;SDS011;2366;51.332;6.610;2024-03-06T04:00:50;74.23;;;33.73;;
4704;SDS011;2366;51.332;6.610;2024-03-06T04:03:18;64.65;;;32.83;;
4704;SDS011;2366;51.332;6.610;2024-03-06T04:05:45;58.33;;;30.75;;
4704;SDS011;2366;51.332;6.610;2024-03-06T04:08:11;61.17;;;30.25;;
4704;SDS011;2366;51.332;6.610;2024-03-06T04:10:37;58.53;;;31.37;;
4704;SDS011;2366;51.332;6.610;2024-03-06T04:13:02;77.97;;;33.73;;
4704;SDS011;2366;51.332;6.610;2024-03-06T04:15:28;68.80;;;32.47;;
4704;SDS011;2366;51.332;6.610;2024-03-06T04:17:53;62.07;;;30.10;;
4704;SDS011;2366;51.332;6.610;2024-03-06T04:20:19;67.60;;;33.07;;
4704;SDS011;2366;51.332;6.610;2024-03-06T04:22:44;63.67;;;33.17;;
4704;SDS011;2366;51.332;6.610;2024-03-06T04:25:11;58.67;;;31.45;;
4704;SDS011;2366;51.332;6.610;2024-03-06T04:27:36;62.67;;;33.30;;
4704;SDS011;2366;51.332;6.610;2024-03-06T04:30:02;56.77;;;33.40;;
4704;SDS011;2366;51.332;6.610;2024-03-06T04:32:29;62.42;;;34.47;;
4704;SDS011;2366;51.332;6.610;2024-03-06T04:34:54;57.07;;;31.83;;
4704;SDS011;2366;51.332;6.610;2024-03-06T04:37:21;53.25;;;28.63;;
4704;SDS011;2366;51.332;6.610;2024-03-06T04:39:46;66.90;;;32.87;;
4704;SDS011;2366;51.332;6.610;2024-03-06T04:42:13;58.97;;;33.08;;
4704;SDS011;2366;51.332;6.610;2024-03-06T04:44:38;55.53;;;31.63;;
4704;SDS011;2366;51.332;6.610;2024-03-06T04:47:03;50.77;;;28.90;;
4704;SDS011;2366;51.332;6.610;2024-03-06T04:49:32;63.53;;;34.57;;
4704;SDS011;2366;51.332;6.610;2024-03-06T04:51:59;56.97;;;29.98;;
4704;SDS011;2366;51.332;6.610;2024-03-06T04:54:24;50.93;;;30.13;;
4704;SDS011;2366;51.332;6.610;2024-03-06T04:56:49;61.33;;;32.67;;
4704;SDS011;2366;51.332;6.610;2024-03-06T04:59:15;58.83;;;28.73;;
4704;SDS011;2366;51.332;6.610;2024-03-06T05:01:40;58.50;;;31.27;;
4704;SDS011;2366;51.332;6.610;2024-03-06T05:04:05;49.90;;;27.07;;
4704;SDS011;2366;51.332;6.610;2024-03-06T05:06:32;53.40;;;29.25;;
4704;SDS011;2366;51.332;6.610;2024-03-06T05:08:57;50.17;;;28.50;;
4704;SDS011;2366;51.332;6.610;2024-03-06T05:11:22;55.70;;;29.10;;
4704;SDS011;2366;51.332;6.610;2024-03-06T05:13:48;48.50;;;26.63;;
4704;SDS011;2366;51.332;6.610;2024-03-06T05:16:14;59.05;;;31.20;;
4704;SDS011;2366;51.332;6.610;2024-03-06T05:18:39;55.50;;;31.27;;
4704;SDS011;2366;51.332;6.610;2024-03-06T05:21:05;67.23;;;32.07;;
4704;SDS011;2366;51.332;6.610;2024-03-06T05:23:30;51.70;;;28.33;;
4704;SDS011;2366;51.332;6.610;2024-03-06T05:25:56;53.83;;;28.83;;
4704;SDS011;2366;51.332;6.610;2024-03-06T05:28:21;52.40;;;27.90;;
4704;SDS011;2366;51.332;6.610;2024-03-06T05:30:46;55.17;;;29.77;;
4704;SDS011;2366;51.332;6.610;2024-03-06T05:33:12;54.42;;;29.67;;
4704;SDS011;2366;51.332;6.610;2024-03-06T05:35:38;55.77;;;29.27;;
4704;SDS011;2366;51.332;6.610;2024-03-06T05:38:03;57.63;;;31.33;;
4704;SDS011;2366;51.332;6.610;2024-03-06T05:40:29;62.87;;;31.10;;
4704;SDS011;2366;51.332;6.610;2024-03-06T05:42:59;56.20;;;29.23;;
4704;SDS011;2366;51.332;6.610;2024-03-06T05:45:25;55.80;;;30.83;;
4704;SDS011;2366;51.332;6.610;2024-03-06T05:47:52;54.38;;;29.08;;
4704;SDS011;2366;51.332;6.610;2024-03-06T05:50:18;54.50;;;28.53;;
4704;SDS011;2366;51.332;6.610;2024-03-06T05:52:43;51.27;;;29.60;;
4704;SDS011;2366;51.332;6.610;2024-03-06T05:55:09;52.13;;;27.80;;
4704;SDS011;2366;51.332;6.610;2024-03-06T05:57:34;45.80;;;25.30;;
4704;SDS011;2366;51.332;6.610;2024-03-06T06:00:00;48.50;;;27.63;;
4704;SDS011;2366;51.332;6.610;2024-03-06T06:02:25;53.73;;;27.70;;
4704;SDS011;2366;51.332;6.610;2024-03-06T06:04:50;46.63;;;26.30;;
4704;SDS011;2366;51.332;6.610;2024-03-06T06:07:17;46.67;;;26.67;;
4704;SDS011;2366;51.332;6.610;2024-03-06T06:09:43;48.78;;;27.08;;
4704;SDS011;2366;51.332;6.610;2024-03-06T06:12:08;49.60;;;29.10;;
4704;SDS011;2366;51.332;6.610;2024-03-06T06:14:34;55.70;;;28.50;;
4704;SDS011;2366;51.332;6.610;2024-03-06T06:16:59;51.97;;;30.73;;
4704;SDS011;2366;51.332;6.610;2024-03-06T06:19:24;52.13;;;30.90;;
4704;SDS011;2366;51.332;6.610;2024-03-06T06:21:51;48.57;;;29.27;;
4704;SDS011;2366;51.332;6.610;2024-03-06T06:24:18;52.22;;;26.42;;
4704;SDS011;2366;51.332;6.610;2024-03-06T06:26:44;41.78;;;26.30;;
4704;SDS011;2366;51.332;6.610;2024-03-06T06:29:09;41.60;;;24.33;;
4704;SDS011;2366;51.332;6.610;2024-03-06T06:31:35;45.40;;;26.40;;
4704;SDS011;2366;51.332;6.610;2024-03-06T06:34:00;50.57;;;27.80;;
4704;SDS011;2366;51.332;6.610;2024-03-06T06:36:25;51.10;;;28.77;;
4704;SDS011;2366;51.332;6.610;2024-03-06T06:38:52;43.83;;;24.27;;
4704;SDS011;2366;51.332;6.610;2024-03-06T06:41:18;46.05;;;26.92;;
4704;SDS011;2366;51.332;6.610;2024-03-06T06:43:44;47.07;;;26.87;;
4704;SDS011;2366;51.332;6.610;2024-03-06T06:46:10;49.30;;;25.23;;
4704;SDS011;2366;51.332;6.610;2024-03-06T06:48:35;38.90;;;24.73;;
4704;SDS011;2366;51.332;6.610;2024-03-06T06:51:01;45.23;;;26.87;;
4704;SDS011;2366;51.332;6.610;2024-03-06T06:53:30;39.63;;;24.63;;
4704;SDS011;2366;51.332;6.610;2024-03-06T06:55:56;35.70;;;23.50;;
4704;SDS011;2366;51.332;6.610;2024-03-06T06:58:22;33.17;;;22.80;;
4704;SDS011;2366;51.332;6.610;2024-03-06T07:00:47;39.47;;;23.27;;
4704;SDS011;2366;51.332;6.610;2024-03-06T07:03:13;30.20;;;21.13;;
4704;SDS011;2366;51.332;6.610;2024-03-06T07:05:38;25.33;;;19.00;;
4704;SDS011;2366;51.332;6.610;2024-03-06T07:08:06;28.10;;;20.40;;
4704;SDS011;2366;51.332;6.610;2024-03-06T07:10:36;22.90;;;15.68;;
4704;SDS011;2366;51.332;6.610;2024-03-06T07:13:02;21.60;;;17.13;;
4704;SDS011;2366;51.332;6.610;2024-03-06T07:15:28;21.60;;;17.60;;
4704;SDS011;2366;51.332;6.610;2024-03-06T07:17:53;21.67;;;16.20;;
4704;SDS011;2366;51.332;6.610;2024-03-06T07:20:19;18.23;;;15.53;;
4704;SDS011;2366;51.332;6.610;2024-03-06T07:22:44;22.97;;;17.33;;
4704;SDS011;2366;51.332;6.610;2024-03-06T07:25:10;21.47;;;17.30;;
4704;SDS011;2366;51.332;6.610;2024-03-06T07:27:35;21.90;;;16.70;;
4704;SDS011;2366;51.332;6.610;2024-03-06T07:30:01;22.13;;;18.33;;
4704;SDS011;2366;51.332;6.610;2024-03-06T07:32:26;21.20;;;16.73;;
4704;SDS011;2366;51.332;6.610;2024-03-06T07:34:52;21.93;;;16.90;;
4704;SDS011;2366;51.332;6.610;2024-03-06T07:37:17;20.17;;;15.80;;
4704;SDS011;2366;51.332;6.610;2024-03-06T07:39:42;21.00;;;15.70;;
4704;SDS011;2366;51.332;6.610;2024-03-06T07:42:08;18.40;;;16.30;;
4704;SDS011;2366;51.332;6.610;2024-03-06T07:44:35;18.60;;;15.53;;
4704;SDS011;2366;51.332;6.610;2024-03-06T07:47:01;19.07;;;14.63;;
4704;SDS011;2366;51.332;6.610;2024-03-06T07:49:26;18.90;;;16.43;;
4704;SDS011;2366;51.332;6.610;2024-03-06T07:51:53;18.90;;;15.80;;
4704;SDS011;2366;51.332;6.610;2024-03-06T07:54:18;17.33;;;15.10;;
4704;SDS011;2366;51.332;6.610;2024-03-06T07:56:44;19.53;;;14.87;;
4704;SDS011;2366;51.332;6.610;2024-03-06T07:59:09;23.43;;;14.87;;
4704;SDS011;2366;51.332;6.610;2024-03-06T08:01:37;16.80;;;14.67;;
4704;SDS011;2366;51.332;6.610;2024-03-06T08:04:03;22.90;;;16.07;;
4704;SDS011;2366;51.332;6.610;2024-03-06T08:06:28;16.77;;;14.87;;
4704;SDS011;2366;51.332;6.610;2024-03-06T08:08:54;15.57;;;13.87;;
4704;SDS011;2366;51.332;6.610;2024-03-06T08:11:20;17.27;;;13.03;;
4704;SDS011;2366;51.332;6.610;2024-03-06T08:13:46;16.27;;;12.03;;
4704;SDS011;2366;51.332;6.610;2024-03-06T08:16:12;20.00;;;13.37;;
4704;SDS011;2366;51.332;6.610;2024-03-06T08:18:37;18.70;;;12.57;;
4704;SDS011;2366;51.332;6.610;2024-03-06T08:21:03;13.43;;;12.03;;
4704;SDS011;2366;51.332;6.610;2024-03-06T08:23:30;14.23;;;12.80;;
4704;SDS011;2366;51.332;6.610;2024-03-06T08:25:55;14.07;;;12.50;;
4704;SDS011;2366;51.332;6.610;2024-03-06T08:28:21;14.43;;;12.50;;
4704;SDS011;2366;51.332;6.610;2024-03-06T08:30:46;14.37;;;12.90;;
4704;SDS011;2366;51.332;6.610;2024-03-06T08:33:12;17.57;;;12.77;;
4704;SDS011;2366;51.332;6.610;2024-03-06T08:35:38;13.90;;;12.50;;
4704;SDS011;2366;51.332;6.610;2024-03-06T08:38:04;15.53;;;12.67;;
4704;SDS011;2366;51.332;6.610;2024-03-06T08:40:31;14.70;;;11.80;;
4704;SDS011;2366;51.332;6.610;2024-03-06T08:42:57;15.97;;;11.70;;
4704;SDS011;2366;51.332;6.610;2024-03-06T08:45:22;17.03;;;11.83;;
4704;SDS011;2366;51.332;6.610;2024-03-06T08:47:50;11.80;;;10.60;;
4704;SDS011;2366;51.332;6.610;2024-03-06T08:50:18;13.53;;;10.30;;
4704;SDS011;2366;51.332;6.610;2024-03-06T08:52:44;14.10;;;11.27;;
4704;SDS011;2366;51.332;6.610;2024-03-06T08:55:10;9.23;;;8.03;;
4704;SDS011;2366;51.332;6.610;2024-03-06T08:57:36;9.23;;;7.80;;
4704;SDS011;2366;51.332;6.610;2024-03-06T09:00:05;8.37;;;7.53;;
4704;SDS011;2366;51.332;6.610;2024-03-06T09:02:35;12.10;;;7.57;;
4704;SDS011;2366;51.332;6.610;2024-03-06T09:05:03;10.63;;;9.63;;
4704;SDS011;2366;51.332;6.610;2024-03-06T09:07:29;12.77;;;9.57;;
4704;SDS011;2366;51.332;6.610;2024-03-06T09:09:55;10.27;;;9.37;;
4704;SDS011;2366;51.332;6.610;2024-03-06T09:12:20;9.30;;;8.40;;
4704;SDS011;2366;51.332;6.610;2024-03-06T09:14:45;10.97;;;9.97;;
4704;SDS011;2366;51.332;6.610;2024-03-06T09:17:11;9.80;;;8.77;;
4704;SDS011;2366;51.332;6.610;2024-03-06T09:19:39;9.63;;;8.40;;
4704;SDS011;2366;51.332;6.610;2024-03-06T09:22:05;8.80;;;8.00;;
4704;SDS011;2366;51.332;6.610;2024-03-06T09:24:30;9.83;;;8.93;;
4704;SDS011;2366;51.332;6.610;2024-03-06T09:26:55;10.67;;;8.40;;
4704;SDS011;2366;51.332;6.610;2024-03-06T09:29:21;10.23;;;7.23;;
4704;SDS011;2366;51.332;6.610;2024-03-06T09:31:46;15.00;;;9.63;;
4704;SDS011;2366;51.332;6.610;2024-03-06T09:34:13;9.00;;;8.10;;
4704;SDS011;2366;51.332;6.610;2024-03-06T09:36:40;11.90;;;8.23;;
4704;SDS011;2366;51.332;6.610;2024-03-06T09:39:12;10.67;;;9.17;;
4704;SDS011;2366;51.332;6.610;2024-03-06T09:41:42;14.07;;;11.00;;
4704;SDS011;2366;51.332;6.610;2024-03-06T09:44:08;13.47;;;11.40;;
4704;SDS011;2366;51.332;6.610;2024-03-06T09:46:34;12.90;;;11.60;;
4704;SDS011;2366;51.332;6.610;2024-03-06T09:49:00;14.83;;;12.63;;
4704;SDS011;2366;51.332;6.610;2024-03-06T09:51:26;15.50;;;14.03;;
4704;SDS011;2366;51.332;6.610;2024-03-06T09:53:52;22.00;;;16.10;;
4704;SDS011;2366;51.332;6.610;2024-03-06T09:56:18;17.50;;;15.67;;
4704;SDS011;2366;51.332;6.610;2024-03-06T09:58:45;18.67;;;14.90;;
4704;SDS011;2366;51.332;6.610;2024-03-06T10:01:12;22.30;;;17.10;;
4704;SDS011;2366;51.332;6.610;2024-03-06T10:03:39;23.23;;;18.80;;
4704;SDS011;2366;51.332;6.610;2024-03-06T10:06:07;21.48;;;18.73;;
4704;SDS011;2366;51.332;6.610;2024-03-06T10:08:33;24.23;;;19.13;;
4704;SDS011;2366;51.332;6.610;2024-03-06T10:10:58;28.37;;;18.70;;
4704;SDS011;2366;51.332;6.610;2024-03-06T10:13:24;30.52;;;20.00;;
4704;SDS011;2366;51.332;6.610;2024-03-06T10:16:03;26.57;;;18.37;;
4704;SDS011;2366;51.332;6.610;2024-03-06T10:18:33;26.05;;;19.40;;
4704;SDS011;2366;51.332;6.610;2024-03-06T10:20:59;27.50;;;18.10;;
4704;SDS011;2366;51.332;6.610;2024-03-06T10:23:26;25.02;;;19.13;;
4704;SDS011;2366;51.332;6.610;2024-03-06T10:25:54;29.45;;;19.98;;
4704;SDS011;2366;51.332;6.610;2024-03-06T10:28:20;28.60;;;19.87;;
4704;SDS011;2366;51.332;6.610;2024-03-06T10:30:50;25.88;;;18.55;;
4704;SDS011;2366;51.332;6.610;2024-03-06T10:33:18;33.67;;;18.40;;
4704;SDS011;2366;51.332;6.610;2024-03-06T10:35:44;26.50;;;18.30;;
4704;SDS011;2366;51.332;6.610;2024-03-06T10:38:10;24.55;;;18.90;;
4704;SDS011;2366;51.332;6.610;2024-03-06T10:40:38;27.48;;;19.08;;
4704;SDS011;2366;51.332;6.610;2024-03-06T10:43:06;26.30;;;19.20;;
4704;SDS011;2366;51.332;6.610;2024-03-06T10:45:48;27.02;;;19.30;;
4704;SDS011;2366;51.332;6.610;2024-03-06T10:48:25;33.33;;;21.17;;
4704;SDS011;2366;51.332;6.610;2024-03-06T10:50:53;34.40;;;22.73;;
4704;SDS011;2366;51.332;6.610;2024-03-06T10:53:19;25.10;;;20.55;;
4704;SDS011;2366;51.332;6.610;2024-03-06T10:55:46;28.13;;;20.20;;
4704;SDS011;2366;51.332;6.610;2024-03-06T10:58:12;27.40;;;20.67;;
4704;SDS011;2366;51.332;6.610;2024-03-06T11:00:38;33.87;;;18.97;;
4704;SDS011;2366;51.332;6.610;2024-03-06T11:03:05;26.75;;;20.60;;
4704;SDS011;2366;51.332;6.610;2024-03-06T11:05:37;33.22;;;23.33;;
4704;SDS011;2366;51.332;6.610;2024-03-06T11:08:05;36.75;;;22.25;;
4704;SDS011;2366;51.332;6.610;2024-03-06T11:10:36;30.52;;;22.13;;
4704;SDS011;2366;51.332;6.610;2024-03-06T11:13:03;33.38;;;22.40;;
4704;SDS011;2366;51.332;6.610;2024-03-06T11:15:33;31.67;;;21.90;;
4704;SDS011;2366;51.332;6.610;2024-03-06T11:18:03;30.60;;;22.70;;
4704;SDS011;2366;51.332;6.610;2024-03-06T11:20:58;31.05;;;22.73;;
4704;SDS011;2366;51.332;6.610;2024-03-06T11:30:19;36.42;;;24.00;;
4704;SDS011;2366;51.332;6.610;2024-03-06T11:32:56;40.38;;;27.15;;
4704;SDS011;2366;51.332;6.610;2024-03-06T11:35:23;37.47;;;28.60;;
4704;SDS011;2366;51.332;6.610;2024-03-06T11:37:49;33.83;;;25.53;;
4704;SDS011;2366;51.332;6.610;2024-03-06T11:40:22;37.88;;;26.02;;
4704;SDS011;2366;51.332;6.610;2024-03-06T11:42:49;37.70;;;26.75;;
4704;SDS011;2366;51.332;6.610;2024-03-06T11:45:18;39.83;;;27.20;;
4704;SDS011;2366;51.332;6.610;2024-03-06T11:47:57;36.17;;;26.67;;
4704;SDS011;2366;51.332;6.610;2024-03-06T11:50:25;36.85;;;25.55;;
4704;SDS011;2366;51.332;6.610;2024-03-06T11:52:51;39.45;;;27.45;;
4704;SDS011;2366;51.332;6.610;2024-03-06T11:55:17;36.70;;;25.70;;
4704;SDS011;2366;51.332;6.610;2024-03-06T11:57:42;35.47;;;26.27;;
4704;SDS011;2366;51.332;6.610;2024-03-06T12:00:08;38.00;;;26.27;;
4704;SDS011;2366;51.332;6.610;2024-03-06T12:02:36;37.00;;;27.33;;
4704;SDS011;2366;51.332;6.610;2024-03-06T12:05:02;39.63;;;27.88;;
4704;SDS011;2366;51.332;6.610;2024-03-06T12:07:28;43.95;;;29.60;;
4704;SDS011;2366;51.332;6.610;2024-03-06T12:09:53;41.30;;;28.40;;
4704;SDS011;2366;51.332;6.610;2024-03-06T12:12:18;35.90;;;25.67;;
4704;SDS011;2366;51.332;6.610;2024-03-06T12:14:44;41.37;;;25.87;;
4704;SDS011;2366;51.332;6.610;2024-03-06T12:17:21;32.83;;;21.77;;
4704;SDS011;2366;51.332;6.610;2024-03-06T12:19:47;39.00;;;24.50;;
4704;SDS011;2366;51.332;6.610;2024-03-06T12:22:13;39.95;;;22.40;;
4704;SDS011;2366;51.332;6.610;2024-03-06T12:24:40;29.95;;;22.10;;
4704;SDS011;2366;51.332;6.610;2024-03-06T12:27:06;30.00;;;19.37;;
4704;SDS011;2366;51.332;6.610;2024-03-06T12:29:33;25.95;;;18.90;;
4704;SDS011;2366;51.332;6.610;2024-03-06T12:32:00;24.50;;;18.40;;
4704;SDS011;2366;51.332;6.610;2024-03-06T12:34:26;23.52;;;16.67;;
4704;SDS011;2366;51.332;6.610;2024-03-06T12:36:52;28.10;;;19.80;;
4704;SDS011;2366;51.332;6.610;2024-03-06T12:39:17;35.90;;;21.50;;
4704;SDS011;2366;51.332;6.610;2024-03-06T12:41:46;30.73;;;20.42;;
4704;SDS011;2366;51.332;6.610;2024-03-06T12:44:12;27.65;;;18.73;;
4704;SDS011;2366;51.332;6.610;2024-03-06T12:46:38;28.80;;;19.90;;
4704;SDS011;2366;51.332;6.610;2024-03-06T12:49:03;25.97;;;17.37;;
4704;SDS011;2366;51.332;6.610;2024-03-06T12:51:28;15.60;;;13.40;;
4704;SDS011;2366;51.332;6.610;2024-03-06T12:53:54;17.20;;;13.50;;
4704;SDS011;2366;51.332;6.610;2024-03-06T12:56:19;17.20;;;13.20;;
4704;SDS011;2366;51.332;6.610;2024-03-06T12:58:45;22.10;;;15.50;;
4704;SDS011;2366;51.332;6.610;2024-03-06T13:01:10;21.10;;;15.23;;
4704;SDS011;2366;51.332;6.610;2024-03-06T13:03:36;19.73;;;14.90;;
4704;SDS011;2366;51.332;6.610;2024-03-06T13:06:02;18.42;;;14.45;;
4704;SDS011;2366;51.332;6.610;2024-03-06T13:08:29;19.02;;;14.35;;
4704;SDS011;2366;51.332;6.610;2024-03-06T13:10:54;24.03;;;17.30;;
4704;SDS011;2366;51.332;6.610;2024-03-06T13:13:21;23.52;;;16.70;;
4704;SDS011;2366;51.332;6.610;2024-03-06T13:15:48;24.23;;;16.80;;
4704;SDS011;2366;51.332;6.610;2024-03-06T13:18:14;22.10;;;15.97;;
4704;SDS011;2366;51.332;6.610;2024-03-06T13:20:40;24.20;;;17.48;;
4704;SDS011;2366;51.332;6.610;2024-03-06T13:23:06;18.17;;;14.93;;
4704;SDS011;2366;51.332;6.610;2024-03-06T13:25:31;25.73;;;15.63;;
4704;SDS011;2366;51.332;6.610;2024-03-06T13:27:56;21.10;;;14.73;;
4704;SDS011;2366;51.332;6.610;2024-03-06T13:30:22;26.73;;;18.10;;
4704;SDS011;2366;51.332;6.610;2024-03-06T13:32:48;26.33;;;15.45;;
4704;SDS011;2366;51.332;6.610;2024-03-06T13:35:13;25.93;;;16.67;;
4704;SDS011;2366;51.332;6.610;2024-03-06T13:37:39;25.10;;;15.73;;
4704;SDS011;2366;51.332;6.610;2024-03-06T13:40:06;20.95;;;15.88;;
4704;SDS011;2366;51.332;6.610;2024-03-06T13:42:33;24.73;;;17.65;;
4704;SDS011;2366;51.332;6.610;2024-03-06T13:45:00;19.73;;;15.95;;
4704;SDS011;2366;51.332;6.610;2024-03-06T13:47:25;27.00;;;17.53;;
4704;SDS011;2366;51.332;6.610;2024-03-06T13:49:51;23.57;;;15.47;;
4704;SDS011;2366;51.332;6.610;2024-03-06T13:52:16;23.00;;;16.33;;
4704;SDS011;2366;51.332;6.610;2024-03-06T13:54:45;21.95;;;17.25;;
4704;SDS011;2366;51.332;6.610;2024-03-06T13:57:11;26.65;;;16.80;;
4704;SDS011;2366;51.332;6.610;2024-03-06T13:59:36;25.03;;;18.63;;
4704;SDS011;2366;51.332;6.610;2024-03-06T14:02:05;20.30;;;16.15;;
4704;SDS011;2366;51.332;6.610;2024-03-06T14:04:32;20.48;;;16.77;;
4704;SDS011;2366;51.332;6.610;2024-03-06T14:06:57;19.80;;;14.77;;
4704;SDS011;2366;51.332;6.610;2024-03-06T14:09:24;23.42;;;15.48;;
4704;SDS011;2366;51.332;6.610;2024-03-06T14:11:50;19.70;;;13.93;;
4704;SDS011;2366;51.332;6.610;2024-03-06T14:14:18;21.05;;;16.65;;
4704;SDS011;2366;51.332;6.610;2024-03-06T14:16:44;20.63;;;16.58;;
4704;SDS011;2366;51.332;6.610;2024-03-06T14:19:10;24.53;;;15.53;;
4704;SDS011;2366;51.332;6.610;2024-03-06T14:21:36;21.87;;;17.07;;
4704;SDS011;2366;51.332;6.610;2024-03-06T14:24:02;26.17;;;16.50;;
4704;SDS011;2366;51.332;6.610;2024-03-06T14:26:34;24.35;;;16.48;;
4704;SDS011;2366;51.332;6.610;2024-03-06T14:29:03;23.15;;;16.45;;
4704;SDS011;2366;51.332;6.610;2024-03-06T14:31:31;22.45;;;16.20;;
4704;SDS011;2366;51.332;6.610;2024-03-06T14:33:56;25.97;;;18.57;;
4704;SDS011;2366;51.332;6.610;2024-03-06T14:36:22;24.93;;;16.63;;
4704;SDS011;2366;51.332;6.610;2024-03-06T14:38:49;21.17;;;16.25;;
4704;SDS011;2366;51.332;6.610;2024-03-06T14:41:15;22.43;;;17.60;;
4704;SDS011;2366;51.332;6.610;2024-03-06T14:43:40;24.33;;;17.20;;
4704;SDS011;2366;51.332;6.610;2024-03-06T14:46:06;25.50;;;17.67;;
4704;SDS011;2366;51.332;6.610;2024-03-06T14:48:32;24.07;;;17.50;;
4704;SDS011;2366;51.332;6.610;2024-03-06T14:50:59;23.17;;;16.55;;